Time;durP1;ratioP1;P1;durP2;ratioP2;P2;SDS_P1;SDS_P2;PMS_P1;PMS_P2;Temp;Humidity;BMP_temperature;BMP_pressure;BME280_temperature;BME280_humidity;BME280_pressure;Samples;Min_cycle;Max_cycle;Signal;HPM_P1;HPM_P2
2022/09/16 00:01:20;;;;;;;3.92;3.03;;;14.10;99.90;;;;;;5056915;28;20033;-73
2022/09/16 00:03:47;;;;;;;5.38;3.20;;;14.20;99.90;;;;;;5055373;28;20053;-74
2022/09/16 00:06:17;;;;;;;5.97;4.07;;;14.20;99.90;;;;;;5055488;28;20090;-74
2022/09/16 00:08:44;;;;;;;5.53;4.28;;;14.30;99.90;;;;;;5057139;28;20056;-73
2022/09/16 00:11:10;;;;;;;5.22;4.43;;;14.40;99.90;;;;;;5055506;28;20527;-73
2022/09/16 00:13:36;;;;;;;5.85;3.75;;;14.50;99.90;;;;;;5055541;28;20037;-73
2022/09/16 00:16:07;;;;;;;5.10;4.60;;;14.50;99.90;;;;;;5055222;28;20024;-73
2022/09/16 00:18:32;;;;;;;6.28;4.32;;;14.60;99.90;;;;;;5055345;28;20466;-73
2022/09/16 00:20:58;;;;;;;6.60;4.25;;;14.60;99.90;;;;;;5055332;28;20083;-73
2022/09/16 00:23:24;;;;;;;7.28;4.20;;;14.60;99.90;;;;;;5055222;28;20036;-73
2022/09/16 00:25:54;;;;;;;8.93;4.63;;;14.60;99.90;;;;;;5055677;28;20033;-73
2022/09/16 00:28:21;;;;;;;5.72;4.35;;;14.70;99.90;;;;;;5055606;28;20025;-73
2022/09/16 00:30:47;;;;;;;8.63;4.10;;;14.70;99.90;;;;;;5056901;28;20028;-73
2022/09/16 00:33:13;;;;;;;7.57;4.28;;;14.80;99.90;;;;;;5054653;28;20029;-73
2022/09/16 00:35:39;;;;;;;7.50;4.63;;;14.80;99.90;;;;;;5056353;28;20033;-73
2022/09/16 00:38:05;;;;;;;8.20;4.43;;;14.80;99.90;;;;;;5055258;28;20116;-73
2022/09/16 00:40:30;;;;;;;8.30;4.30;;;14.80;99.90;;;;;;5055170;28;20432;-73
2022/09/16 00:42:58;;;;;;;7.68;4.30;;;14.80;99.90;;;;;;5058022;28;20029;-74
2022/09/16 00:45:30;;;;;;;7.22;4.60;;;14.80;99.90;;;;;;5059489;28;20048;-75
2022/09/16 00:48:06;;;;;;;9.32;4.13;;;14.80;99.90;;;;;;5059425;28;20029;-74
2022/09/16 00:50:47;;;;;;;8.07;4.85;;;14.80;99.90;;;;;;5058913;28;20016;-73
2022/09/16 00:53:24;;;;;;;7.53;4.32;;;14.80;99.90;;;;;;5056977;28;20029;-74
2022/09/16 00:55:52;;;;;;;4.47;4.15;;;14.70;99.90;;;;;;5055596;28;20028;-74
2022/09/16 00:58:40;;;;;;;5.18;4.65;;;14.70;99.90;;;;;;5055060;28;20104;-74
2022/09/16 01:01:06;;;;;;;5.15;3.90;;;14.60;99.90;;;;;;5055215;28;20385;-74
2022/09/16 01:03:43;;;;;;;7.65;4.97;;;14.60;99.90;;;;;;5056105;28;20053;-74
2022/09/16 01:06:10;;;;;;;4.25;3.90;;;14.60;99.90;;;;;;5054825;28;20469;-74
2022/09/16 01:08:36;;;;;;;6.88;4.15;;;14.50;99.90;;;;;;5056368;28;20436;-73
2022/09/16 01:11:01;;;;;;;5.30;4.68;;;14.50;99.90;;;;;;5055269;28;20083;-73
2022/09/16 01:13:27;;;;;;;6.32;3.92;;;14.50;99.90;;;;;;5055338;28;20025;-74
2022/09/16 01:15:57;;;;;;;5.68;4.20;;;14.50;99.90;;;;;;5055374;28;20052;-73
2022/09/16 01:18:51;;;;;;;6.70;4.78;;;14.50;99.90;;;;;;5055488;28;20029;-73
2022/09/16 01:21:37;;;;;;;4.40;3.90;;;14.50;99.90;;;;;;5057253;28;20025;-73
2022/09/16 01:24:24;;;;;;;5.22;4.07;;;14.50;99.90;;;;;;5056201;28;20057;-73
2022/09/16 01:26:56;;;;;;;7.20;4.47;;;14.50;99.90;;;;;;5055202;28;20476;-73
2022/09/16 01:29:56;;;;;;;9.60;4.57;;;14.50;99.90;;;;;;5055834;28;20036;-73
2022/09/16 01:32:41;;;;;;;7.85;4.20;;;14.40;99.90;;;;;;5054207;28;20052;-73
2022/09/16 01:35:19;;;;;;;6.03;3.78;;;14.40;99.90;;;;;;5054859;28;20032;-73
2022/09/16 01:37:55;;;;;;;6.25;3.72;;;14.40;99.90;;;;;;5058210;28;20025;-73
2022/09/16 01:40:32;;;;;;;4.40;4.00;;;14.40;99.90;;;;;;5057095;28;20021;-73
2022/09/16 01:43:16;;;;;;;5.43;4.28;;;14.40;99.90;;;;;;5056320;28;20532;-73
2022/09/16 01:45:55;;;;;;;7.25;4.05;;;14.30;99.90;;;;;;5056615;28;20067;-73
2022/09/16 01:48:28;;;;;;;;;;;14.40;99.90;;;;;;5057500;28;20489;-73
2022/09/16 01:51:06;;;;;;;10.18;4.72;;;14.40;99.90;;;;;;5054064;28;19955;-73
2022/09/16 01:53:39;;;;;;;4.93;4.38;;;14.30;99.90;;;;;;5056512;28;20032;-73
2022/09/16 01:56:13;;;;;;;5.90;4.78;;;14.30;99.90;;;;;;5055781;28;20033;-73
2022/09/16 01:58:51;;;;;;;8.35;4.78;;;14.40;99.90;;;;;;5055719;28;20025;-73
2022/09/16 02:01:25;;;;;;;7.85;4.50;;;14.40;99.90;;;;;;5057620;28;20068;-73
2022/09/16 02:03:58;;;;;;;8.63;4.28;;;14.50;99.90;;;;;;5055975;28;20045;-73
2022/09/16 02:06:26;;;;;;;9.32;4.85;;;14.40;99.90;;;;;;5055192;28;20112;-73
2022/09/16 02:08:57;;;;;;;5.25;4.70;;;14.40;99.90;;;;;;5053932;28;20477;-73
2022/09/16 02:11:24;;;;;;;5.13;4.20;;;14.50;99.90;;;;;;5055476;28;20036;-73
2022/09/16 02:13:56;;;;;;;6.28;4.28;;;14.40;99.90;;;;;;5053304;28;20056;-73
2022/09/16 02:16:49;;;;;;;7.75;4.15;;;14.40;99.90;;;;;;5053417;28;20442;-73
2022/09/16 02:19:20;;;;;;;9.35;4.70;;;14.40;99.90;;;;;;5054062;28;20385;-73
2022/09/16 02:21:47;;;;;;;6.40;4.82;;;14.30;99.90;;;;;;5053125;28;20029;-73
2022/09/16 02:24:18;;;;;;;11.68;4.90;;;14.30;99.90;;;;;;5054155;28;20029;-73
2022/09/16 02:26:50;;;;;;;11.20;4.97;;;14.20;99.90;;;;;;5053277;28;20033;-73
2022/09/16 02:29:21;;;;;;;6.63;4.65;;;14.20;99.90;;;;;;5054349;28;20398;-74
2022/09/16 02:31:48;;;;;;;8.35;5.43;;;14.20;99.90;;;;;;5054182;28;20022;-73
2022/09/16 02:34:18;;;;;;;7.85;5.20;;;14.20;99.90;;;;;;5054064;28;20028;-73
2022/09/16 02:36:50;;;;;;;8.63;5.45;;;14.20;99.90;;;;;;5052820;28;20036;-73
2022/09/16 02:39:23;;;;;;;7.57;5.28;;;14.20;99.90;;;;;;5054207;28;20029;-73
2022/09/16 02:41:49;;;;;;;9.55;5.22;;;14.30;99.90;;;;;;5053095;28;20025;-73
2022/09/16 02:44:15;;;;;;;6.05;4.78;;;14.20;99.90;;;;;;5053557;28;20427;-73
2022/09/16 02:47:11;;;;;;;9.80;5.13;;;14.20;99.90;;;;;;5053846;28;20029;-73
2022/09/16 02:49:48;;;;;;;6.70;5.10;;;14.10;99.90;;;;;;5053872;28;20473;-73
2022/09/16 02:52:32;;;;;;;7.32;5.22;;;14.10;99.90;;;;;;5052558;28;20025;-73
2022/09/16 02:55:03;;;;;;;6.00;5.32;;;14.10;99.90;;;;;;5052603;28;20024;-73
2022/09/16 02:57:29;;;;;;;9.10;5.57;;;14.10;99.90;;;;;;5052586;28;20032;-73
2022/09/16 02:59:55;;;;;;;7.55;5.18;;;14.10;99.90;;;;;;5053692;28;20021;-73
2022/09/16 03:02:21;;;;;;;8.32;5.53;;;14.00;99.90;;;;;;5053318;28;20037;-73
2022/09/16 03:04:47;;;;;;;5.97;5.47;;;14.00;99.90;;;;;;5053900;28;20084;-73
2022/09/16 03:07:14;;;;;;;8.00;7.20;;;14.00;99.90;;;;;;5053627;28;20025;-73
2022/09/16 03:09:44;;;;;;;7.38;6.10;;;13.90;99.90;;;;;;5053461;28;20096;-73
2022/09/16 03:12:29;;;;;;;9.18;6.28;;;13.90;99.90;;;;;;5052329;28;20060;-73
2022/09/16 03:15:13;;;;;;;7.32;5.53;;;13.90;99.90;;;;;;5052572;28;20056;-73
2022/09/16 03:18:09;;;;;;;9.13;6.18;;;13.90;99.90;;;;;;5052312;28;20037;-73
2022/09/16 03:20:38;;;;;;;8.93;6.63;;;13.90;99.90;;;;;;5054165;28;20025;-73
2022/09/16 03:23:18;;;;;;;9.27;6.50;;;14.00;99.90;;;;;;5052274;28;20033;-73
2022/09/16 03:25:50;;;;;;;9.57;6.72;;;14.00;99.90;;;;;;5053886;28;20374;-73
2022/09/16 03:28:24;;;;;;;7.57;5.93;;;14.00;99.90;;;;;;5053428;28;20029;-73
2022/09/16 03:31:10;;;;;;;8.40;6.72;;;14.00;99.90;;;;;;5055757;28;20057;-73
2022/09/16 03:34:00;;;;;;;12.38;6.82;;;14.00;99.90;;;;;;5056040;28;20040;-73
2022/09/16 03:36:33;;;;;;;9.68;7.03;;;13.90;99.90;;;;;;5057875;28;20048;-73
2022/09/16 03:39:01;;;;;;;8.05;7.20;;;13.90;99.90;;;;;;5057649;28;20032;-73
2022/09/16 03:41:29;;;;;;;10.93;6.68;;;13.90;99.90;;;;;;5057211;28;20055;-73
2022/09/16 03:43:56;;;;;;;7.32;6.38;;;13.90;99.90;;;;;;5057119;28;20041;-73
2022/09/16 03:46:22;;;;;;;11.27;6.53;;;13.90;99.90;;;;;;5056896;28;20035;-73
2022/09/16 03:48:48;;;;;;;8.60;7.03;;;13.90;99.90;;;;;;5055948;28;20354;-73
2022/09/16 03:51:14;;;;;;;6.95;6.18;;;13.90;99.90;;;;;;5055855;28;20032;-73
2022/09/16 03:53:40;;;;;;;7.95;6.75;;;13.90;99.90;;;;;;5057021;28;20033;-73
2022/09/16 03:56:06;;;;;;;10.38;6.60;;;13.90;99.90;;;;;;5057139;28;20033;-73
2022/09/16 03:58:32;;;;;;;11.52;6.70;;;13.80;99.90;;;;;;5057049;28;20048;-73
2022/09/16 04:00:57;;;;;;;8.85;6.80;;;13.80;99.90;;;;;;5055552;28;20484;-73
2022/09/16 04:03:23;;;;;;;7.40;5.90;;;13.90;99.90;;;;;;5055760;28;20081;-74
2022/09/16 04:05:53;;;;;;;8.75;6.40;;;13.90;99.90;;;;;;5057259;28;20025;-73
2022/09/16 04:08:19;;;;;;;8.98;6.22;;;13.90;99.90;;;;;;5056888;28;20025;-74
2022/09/16 04:10:59;;;;;;;8.93;6.57;;;13.90;99.90;;;;;;5055963;28;20028;-74
2022/09/16 04:13:28;;;;;;;7.97;6.43;;;13.90;99.90;;;;;;5056618;28;20033;-74
2022/09/16 04:15:53;;;;;;;11.15;6.55;;;13.90;99.90;;;;;;5055381;28;20082;-74
2022/09/16 04:18:19;;;;;;;8.02;5.90;;;13.90;99.90;;;;;;5056499;28;20036;-74
2022/09/16 04:20:45;;;;;;;10.45;6.78;;;13.90;99.90;;;;;;5056574;28;20420;-73
2022/09/16 04:23:11;;;;;;;9.65;6.80;;;13.90;99.90;;;;;;5055147;28;20119;-74
2022/09/16 04:25:36;;;;;;;10.38;6.35;;;13.80;99.90;;;;;;5055074;28;20366;-73
2022/09/16 04:28:02;;;;;;;9.30;7.10;;;13.80;99.90;;;;;;5056340;28;20025;-73
2022/09/16 04:30:28;;;;;;;9.65;6.53;;;13.80;99.90;;;;;;5056217;28;20049;-73
2022/09/16 04:32:54;;;;;;;15.93;7.40;;;13.80;99.90;;;;;;5056566;28;20033;-73
2022/09/16 04:35:20;;;;;;;8.77;6.20;;;13.80;99.90;;;;;;5056182;28;20051;-73
2022/09/16 04:37:46;;;;;;;10.38;7.30;;;13.80;99.90;;;;;;5056151;28;20025;-73
2022/09/16 04:40:12;;;;;;;8.00;7.20;;;13.80;99.90;;;;;;5055545;28;20048;-70
2022/09/16 04:42:37;;;;;;;8.57;6.85;;;13.80;99.90;;;;;;5054738;28;20370;-57
2022/09/16 04:45:04;;;;;;;9.70;6.47;;;13.80;99.90;;;;;;5056127;28;20029;-73
2022/09/16 04:47:29;;;;;;;6.90;6.20;;;13.90;99.90;;;;;;5056331;28;20457;-76
2022/09/16 04:49:55;;;;;;;12.30;6.30;;;13.90;99.90;;;;;;5056052;28;20074;-75
2022/09/16 04:52:21;;;;;;;8.35;5.70;;;13.90;99.90;;;;;;5055977;28;20025;-74
2022/09/16 04:54:46;;;;;;;7.47;5.72;;;13.90;99.90;;;;;;5056467;28;20090;-74
2022/09/16 04:57:12;;;;;;;7.28;5.10;;;13.90;99.90;;;;;;5056082;28;20082;-73
2022/09/16 04:59:38;;;;;;;13.40;6.15;;;13.90;99.90;;;;;;5055770;28;20040;-73
2022/09/16 05:02:03;;;;;;;6.82;5.40;;;13.90;99.90;;;;;;5055581;28;20109;-73
2022/09/16 05:04:29;;;;;;;8.30;5.53;;;13.80;99.90;;;;;;5055228;28;20072;-73
2022/09/16 05:06:55;;;;;;;11.40;6.57;;;13.80;99.90;;;;;;5054353;28;20021;-73
2022/09/16 05:09:21;;;;;;;7.88;6.07;;;13.80;99.90;;;;;;5054472;28;20032;-73
2022/09/16 05:11:47;;;;;;;7.80;5.40;;;13.80;99.90;;;;;;5055547;28;20033;-73
2022/09/16 05:14:16;;;;;;;11.10;6.30;;;13.80;99.90;;;;;;5054245;28;20037;-73
2022/09/16 05:16:42;;;;;;;6.43;5.82;;;13.80;99.90;;;;;;5055323;28;20033;-73
2022/09/16 05:19:10;;;;;;;9.43;5.38;;;13.80;99.90;;;;;;5055482;28;20025;-73
2022/09/16 05:21:37;;;;;;;8.93;6.75;;;13.80;99.90;;;;;;5055530;28;20037;-73
2022/09/16 05:24:09;;;;;;;7.95;6.15;;;13.80;99.90;;;;;;5055095;28;20037;-73
2022/09/16 05:26:37;;;;;;;8.02;5.82;;;13.80;99.90;;;;;;5054819;28;20487;-73
2022/09/16 05:29:05;;;;;;;7.88;5.88;;;13.80;99.90;;;;;;5055064;28;20021;-73
2022/09/16 05:31:34;;;;;;;8.13;6.03;;;13.80;99.90;;;;;;5055226;28;20025;-73
2022/09/16 05:34:01;;;;;;;8.93;6.13;;;13.80;99.90;;;;;;5053927;28;20037;-73
2022/09/16 05:36:29;;;;;;;8.80;6.63;;;13.80;99.90;;;;;;5053739;28;20092;-73
2022/09/16 05:38:55;;;;;;;9.70;7.35;;;13.90;99.90;;;;;;5055355;28;20033;-73
2022/09/16 05:41:21;;;;;;;8.90;6.50;;;13.90;99.90;;;;;;5055334;28;20025;-73
2022/09/16 05:43:47;;;;;;;10.93;7.07;;;13.90;99.90;;;;;;5056394;28;20036;-73
2022/09/16 05:46:18;;;;;;;7.47;6.50;;;13.90;99.90;;;;;;5054115;28;20527;-73
2022/09/16 05:48:44;;;;;;;8.10;7.00;;;13.90;99.90;;;;;;5054199;28;20032;-73
2022/09/16 05:51:14;;;;;;;10.60;6.70;;;14.00;99.90;;;;;;5054181;28;20072;-73
2022/09/16 05:53:39;;;;;;;9.40;7.20;;;14.00;99.90;;;;;;5054096;28;20055;-73
2022/09/16 05:56:15;;;;;;;10.00;6.57;;;14.00;99.90;;;;;;5053385;28;20021;-73
2022/09/16 05:58:41;;;;;;;6.38;5.80;;;14.00;99.90;;;;;;5053374;28;20381;-73
2022/09/16 06:01:11;;;;;;;7.43;5.90;;;14.10;99.90;;;;;;5054254;28;20032;-73
2022/09/16 06:03:40;;;;;;;9.13;5.55;;;14.10;99.90;;;;;;5053002;28;20057;-73
2022/09/16 06:06:25;;;;;;;9.63;6.73;;;14.10;99.90;;;;;;5053307;28;20033;-73
2022/09/16 06:08:53;;;;;;;11.65;6.13;;;14.20;99.90;;;;;;5053158;28;20267;-73
2022/09/16 06:11:19;;;;;;;8.57;5.70;;;14.20;99.90;;;;;;5054476;28;20031;-73
2022/09/16 06:13:45;;;;;;;8.88;5.55;;;14.30;99.90;;;;;;5053236;28;20124;-73
2022/09/16 06:16:13;;;;;;;10.52;4.65;;;14.20;99.90;;;;;;5052898;28;20029;-73
2022/09/16 06:18:39;;;;;;;7.68;4.85;;;14.30;99.90;;;;;;5054318;28;20420;-73
2022/09/16 06:21:13;;;;;;;11.15;5.28;;;14.30;99.90;;;;;;5052977;28;20021;-73
2022/09/16 06:23:39;;;;;;;6.60;4.18;;;14.40;99.90;;;;;;5054266;28;20376;-73
2022/09/16 06:26:08;;;;;;;5.35;4.85;;;14.70;99.90;;;;;;5054363;28;20112;-73
2022/09/16 06:28:34;;;;;;;;;;;15.20;99.90;;;;;;5053266;28;20036;-73
2022/09/16 06:31:07;;;;;;;9.15;4.20;;;15.60;99.90;;;;;;5052542;28;19905;-73
2022/09/16 06:33:34;;;;;;;8.52;4.65;;;15.80;99.90;;;;;;5052686;28;20116;-73
2022/09/16 06:36:11;;;;;;;9.82;4.25;;;15.70;99.90;;;;;;5052690;28;20526;-73
2022/09/16 06:38:37;;;;;;;7.07;4.97;;;15.60;99.90;;;;;;5052920;28;20033;-74
2022/09/16 06:41:05;;;;;;;6.32;3.78;;;15.70;99.90;;;;;;5053957;28;20427;-73
2022/09/16 06:43:31;;;;;;;9.05;4.43;;;15.80;99.90;;;;;;5053848;28;20029;-73
2022/09/16 06:45:59;;;;;;;4.63;3.80;;;15.80;99.90;;;;;;5052580;28;20029;-73
2022/09/16 06:48:26;;;;;;;7.15;3.85;;;15.80;99.90;;;;;;5052607;28;20045;-74
2022/09/16 06:51:02;;;;;;;8.13;3.55;;;15.80;99.90;;;;;;5053841;28;20059;-74
2022/09/16 06:53:29;;;;;;;7.72;3.88;;;15.70;99.90;;;;;;5054267;28;20052;-74
2022/09/16 06:55:58;;;;;;;9.20;3.78;;;15.70;99.90;;;;;;5052581;28;20082;-74
2022/09/16 06:58:24;;;;;;;4.55;3.58;;;15.80;99.90;;;;;;5052245;28;20035;-74
2022/09/16 07:00:50;;;;;;;9.52;4.30;;;16.40;99.90;;;;;;5053909;28;20100;-73
2022/09/16 07:03:16;;;;;;;5.75;3.92;;;16.90;99.90;;;;;;5052008;28;20113;-74
2022/09/16 07:05:41;;;;;;;5.43;3.60;;;17.50;99.90;;;;;;5052568;28;20094;-74
2022/09/16 07:08:07;;;;;;;7.15;2.95;;;18.10;99.90;;;;;;5052266;28;20115;-74
2022/09/16 07:10:33;;;;;;;4.88;2.95;;;18.80;99.90;;;;;;5053743;28;20109;-74
2022/09/16 07:12:58;;;;;;;8.13;2.80;;;19.40;99.90;;;;;;5055085;28;20530;-74
2022/09/16 07:15:24;;;;;;;4.38;2.78;;;19.60;99.90;;;;;;5056197;28;20029;-75
2022/09/16 07:17:56;;;;;;;5.25;2.50;;;19.60;99.90;;;;;;5056392;28;20021;-74
2022/09/16 07:20:22;;;;;;;8.07;2.83;;;19.30;99.90;;;;;;5058120;28;20025;-75
2022/09/16 07:22:49;;;;;;;4.93;2.40;;;18.80;99.90;;;;;;5055380;28;20039;-74
2022/09/16 07:25:15;;;;;;;8.45;2.70;;;18.20;99.90;;;;;;5055330;28;20086;-75
2022/09/16 07:27:41;;;;;;;4.57;2.15;;;17.80;99.90;;;;;;5053108;28;20056;-75
2022/09/16 07:30:07;;;;;;;5.80;2.50;;;17.50;99.90;;;;;;5053721;28;20048;-74
2022/09/16 07:32:33;;;;;;;3.50;2.42;;;17.10;99.90;;;;;;5052159;28;20033;-74
2022/09/16 07:34:59;;;;;;;2.60;2.30;;;17.00;99.90;;;;;;5053329;28;20028;-74
2022/09/16 07:37:24;;;;;;;5.22;2.83;;;16.80;99.90;;;;;;5052024;28;20170;-75
2022/09/16 07:39:50;;;;;;;3.55;2.55;;;16.70;99.90;;;;;;5053078;28;20057;-74
2022/09/16 07:42:16;;;;;;;4.35;2.10;;;16.60;99.90;;;;;;5053291;28;20021;-74
2022/09/16 07:44:41;;;;;;;4.57;2.20;;;16.50;99.90;;;;;;5053310;28;20037;-74
2022/09/16 07:47:07;;;;;;;4.50;2.40;;;16.50;99.90;;;;;;5053279;28;20108;-74
2022/09/16 07:49:32;;;;;;;6.55;2.50;;;16.50;99.90;;;;;;5052070;28;20051;-74
2022/09/16 07:51:59;;;;;;;4.65;2.30;;;16.50;99.90;;;;;;5053041;28;20028;-75
2022/09/16 07:54:24;;;;;;;5.85;2.65;;;16.50;99.90;;;;;;5052413;28;20396;-74
2022/09/16 07:56:50;;;;;;;6.68;2.67;;;16.50;99.90;;;;;;5053136;28;20022;-74
2022/09/16 07:59:18;;;;;;;4.63;2.30;;;16.50;99.90;;;;;;5051647;28;20091;-74
2022/09/16 08:01:43;;;;;;;3.47;2.30;;;16.50;99.90;;;;;;5053130;28;20100;-75
2022/09/16 08:04:09;;;;;;;4.07;2.95;;;16.40;99.90;;;;;;5053317;28;20132;-74
2022/09/16 08:06:37;;;;;;;4.75;3.22;;;16.40;99.90;;;;;;5052831;28;20120;-74
2022/09/16 08:09:03;;;;;;;4.72;2.75;;;16.40;99.90;;;;;;5052872;28;20087;-74
2022/09/16 08:11:29;;;;;;;6.32;2.88;;;16.50;99.90;;;;;;5051938;28;20111;-74
2022/09/16 08:13:58;;;;;;;6.30;3.30;;;16.60;99.90;;;;;;5051846;28;20461;-74
2022/09/16 08:16:24;;;;;;;7.22;2.70;;;17.20;99.90;;;;;;5054472;28;20021;-74
2022/09/16 08:18:52;;;;;;;2.90;2.22;;;18.30;99.90;;;;;;5056456;28;20036;-74
2022/09/16 08:21:20;;;;;;;2.63;2.42;;;19.00;99.90;;;;;;5056380;28;20040;-74
2022/09/16 08:23:46;;;;;;;4.03;2.03;;;19.50;99.90;;;;;;5056478;28;20033;-74
2022/09/16 08:26:13;;;;;;;2.78;1.75;;;20.30;99.90;;;;;;5056208;28;20457;-74
2022/09/16 08:28:42;;;;;;;3.78;2.00;;;20.70;99.90;;;;;;5056066;28;20472;-74
2022/09/16 08:31:09;;;;;;;3.85;2.17;;;20.50;99.90;;;;;;5056368;28;20028;-74
2022/09/16 08:33:37;;;;;;;4.22;1.92;;;19.80;99.90;;;;;;5056821;28;20384;-74
2022/09/16 08:36:07;;;;;;;2.92;1.83;;;19.20;99.90;;;;;;5055160;28;20029;-74
2022/09/16 08:38:34;;;;;;;5.28;2.40;;;18.70;99.90;;;;;;5056445;28;20115;-74
2022/09/16 08:41:07;;;;;;;4.70;2.20;;;18.60;99.90;;;;;;5056340;28;20025;-74
2022/09/16 08:43:42;;;;;;;4.13;2.40;;;18.80;99.90;;;;;;5054918;28;20090;-74
2022/09/16 08:46:23;;;;;;;5.35;2.00;;;19.00;99.90;;;;;;5054585;28;20029;-74
2022/09/16 08:49:02;;;;;;;3.00;1.95;;;19.20;99.90;;;;;;5056638;28;20112;-74
2022/09/16 08:51:27;;;;;;;5.00;1.67;;;19.70;99.90;;;;;;5054972;28;20036;-74
2022/09/16 08:54:09;;;;;;;4.30;2.05;;;20.30;99.90;;;;;;5055455;28;20132;-74
2022/09/16 08:56:36;;;;;;;5.00;1.80;;;20.90;99.90;;;;;;5055146;28;20087;-74
2022/09/16 08:59:11;;;;;;;2.53;1.80;;;21.00;98.90;;;;;;5056489;28;20437;-74
2022/09/16 09:01:48;;;;;;;4.55;2.40;;;20.90;99.70;;;;;;5054467;28;20071;-74
2022/09/16 09:04:14;;;;;;;5.15;1.90;;;20.60;99.80;;;;;;5055899;28;20053;-74
2022/09/16 09:07:06;;;;;;;3.38;2.00;;;20.30;98.80;;;;;;5054819;28;20037;-74
2022/09/16 09:09:47;;;;;;;2.45;2.20;;;19.80;99.90;;;;;;5053124;28;20033;-74
2022/09/16 09:12:21;;;;;;;5.10;2.58;;;19.40;99.90;;;;;;5054270;28;20032;-74
2022/09/16 09:15:13;;;;;;;3.40;2.58;;;19.00;99.90;;;;;;5054323;28;20449;-74
2022/09/16 09:18:14;;;;;;;2.88;2.38;;;18.60;99.90;;;;;;5054299;28;20473;-74
2022/09/16 09:21:09;;;;;;;7.45;3.20;;;18.30;99.90;;;;;;5049531;28;20041;-74
2022/09/16 09:23:52;;;;;;;3.92;2.65;;;18.30;99.90;;;;;;5049457;28;20037;-74
2022/09/16 09:26:27;;;;;;;5.75;2.88;;;18.10;99.90;;;;;;5055362;28;20036;-74
2022/09/16 09:29:03;;;;;;;4.55;3.22;;;18.00;99.90;;;;;;5054577;28;20036;-74
2022/09/16 09:31:47;;;;;;;5.45;2.83;;;17.90;99.90;;;;;;5054023;28;20027;-74
2022/09/16 09:34:28;;;;;;;4.40;2.90;;;17.90;99.90;;;;;;5054663;28;20029;-74
2022/09/16 09:37:31;;;;;;;4.13;3.20;;;18.00;99.90;;;;;;5054010;28;20025;-74
2022/09/16 09:40:08;;;;;;;7.32;2.88;;;18.00;99.90;;;;;;5055090;28;20078;-74
2022/09/16 09:42:43;;;;;;;6.00;3.40;;;18.00;99.90;;;;;;5055081;28;20028;-74
2022/09/16 09:45:33;;;;;;;5.55;3.40;;;18.10;99.90;;;;;;5055061;28;20029;-75
2022/09/16 09:48:12;;;;;;;5.10;3.58;;;18.20;99.90;;;;;;5054952;28;20029;-74
2022/09/16 09:50:42;;;;;;;7.82;4.03;;;18.20;99.90;;;;;;5053667;28;20021;-74
2022/09/16 09:53:11;;;;;;;5.97;3.97;;;18.10;99.90;;;;;;5053788;28;20384;-74
2022/09/16 09:55:39;;;;;;;15.98;5.32;;;18.10;99.90;;;;;;5055000;28;20027;-74
2022/09/16 09:58:18;;;;;;;9.52;3.80;;;18.00;99.90;;;;;;5056620;28;20479;-74
2022/09/16 10:00:44;;;;;;;7.57;4.57;;;18.00;99.90;;;;;;5056679;28;20032;-74
2022/09/16 10:03:16;;;;;;;10.38;4.10;;;18.00;99.90;;;;;;5053957;28;20385;-74
2022/09/16 10:05:42;;;;;;;5.82;4.20;;;17.90;99.90;;;;;;5053889;28;20036;-74
2022/09/16 10:08:20;;;;;;;6.53;4.43;;;18.00;99.90;;;;;;5052887;28;20111;-74
2022/09/16 10:10:58;;;;;;;5.28;4.40;;;17.80;99.90;;;;;;5054367;28;20107;-74
2022/09/16 10:13:26;;;;;;;6.33;5.00;;;17.70;99.90;;;;;;5053985;28;20428;-74
2022/09/16 10:16:09;;;;;;;9.20;5.05;;;17.50;99.90;;;;;;5053755;28;20421;-74
2022/09/16 10:18:36;;;;;;;8.05;5.82;;;17.40;99.90;;;;;;5052887;28;20025;-74
2022/09/16 10:21:07;;;;;;;7.03;5.72;;;17.30;99.90;;;;;;5053875;28;20035;-73
2022/09/16 10:23:34;;;;;;;10.27;6.15;;;17.20;99.90;;;;;;5052735;28;20106;-74
2022/09/16 10:26:21;;;;;;;8.27;5.72;;;17.20;99.90;;;;;;5054089;28;20025;-73
2022/09/16 10:28:58;;;;;;;9.55;6.07;;;17.10;99.90;;;;;;5054231;28;20091;-73
2022/09/16 10:31:26;;;;;;;11.35;6.03;;;17.00;99.90;;;;;;5053776;28;20393;-73
2022/09/16 10:33:52;;;;;;;9.53;6.03;;;17.00;99.90;;;;;;5054176;28;20033;-73
2022/09/16 10:36:21;;;;;;;7.07;5.53;;;17.10;99.90;;;;;;5053875;28;20108;-73
2022/09/16 10:38:54;;;;;;;9.68;6.00;;;17.20;99.90;;;;;;5053562;28;20028;-73
2022/09/16 10:41:22;;;;;;;10.63;5.47;;;17.40;99.90;;;;;;5052793;28;20030;-74
2022/09/16 10:44:22;;;;;;;6.20;5.60;;;17.60;99.90;;;;;;5052688;28;20078;-73
2022/09/16 10:47:01;;;;;;;14.80;6.05;;;17.80;99.90;;;;;;5040188;28;20287;-74
2022/09/16 10:49:41;;;;;;;10.18;5.78;;;17.70;99.90;;;;;;5052602;28;20468;-73
2022/09/16 10:52:14;;;;;;;8.00;5.38;;;17.50;99.90;;;;;;5054121;28;20060;-73
2022/09/16 10:54:40;;;;;;;8.32;5.10;;;17.60;99.90;;;;;;5052630;28;20112;-73
2022/09/16 10:57:24;;;;;;;9.45;5.13;;;17.50;99.90;;;;;;5052668;28;20052;-75
2022/09/16 11:00:13;;;;;;;5.50;4.80;;;17.50;99.90;;;;;;5040073;28;20420;-76
2022/09/16 11:02:51;;;;;;;7.50;5.18;;;17.50;99.90;;;;;;5048334;28;20037;-58
2022/09/16 11:05:32;;;;;;;6.13;4.90;;;17.60;99.90;;;;;;5049000;28;20174;-58
2022/09/16 11:08:28;;;;;;;9.63;4.85;;;17.70;99.90;;;;;;5053713;28;20033;-58
2022/09/16 11:11:22;;;;;;;6.13;4.50;;;17.70;99.90;;;;;;5053866;28;20035;-58
2022/09/16 11:14:28;;;;;;;5.40;4.35;;;17.70;99.90;;;;;;5042147;28;20037;-58
2022/09/16 11:17:02;;;;;;;6.70;5.18;;;17.70;99.90;;;;;;5053688;28;20048;-73
2022/09/16 11:19:46;;;;;;;6.00;4.15;;;17.70;99.90;;;;;;5051871;28;21046;-74
2022/09/16 11:22:47;;;;;;;5.90;4.70;;;17.80;99.90;;;;;;5053269;28;20031;-74
2022/09/16 11:25:44;;;;;;;10.88;4.70;;;17.80;99.90;;;;;;5052078;28;20465;-73
2022/09/16 11:28:31;;;;;;;6.93;4.60;;;17.80;99.90;;;;;;5052181;28;20025;-74
2022/09/16 11:31:12;;;;;;;4.88;4.22;;;17.80;99.90;;;;;;5052758;28;20384;-74
2022/09/16 11:33:44;;;;;;;6.00;3.83;;;17.80;99.90;;;;;;5052183;28;20036;-74
2022/09/16 11:36:28;;;;;;;10.75;3.90;;;17.70;99.90;;;;;;5052291;28;20108;-74
2022/09/16 11:39:14;;;;;;;6.78;4.47;;;17.90;99.90;;;;;;5032226;28;20041;-75
2022/09/16 11:41:53;;;;;;;5.25;4.20;;;17.90;99.90;;;;;;5033827;28;20025;-74
2022/09/16 11:45:00;;;;;;;8.90;3.90;;;18.00;99.90;;;;;;5031667;28;20038;-75
2022/09/16 11:47:37;;;;;;;4.25;3.20;;;18.10;99.90;;;;;;5033279;28;20386;-57
2022/09/16 11:50:36;;;;;;;5.55;3.10;;;18.20;99.90;;;;;;5033754;28;20021;-57
2022/09/16 11:53:19;;;;;;;6.80;2.90;;;18.20;99.90;;;;;;5036786;28;20552;-58
2022/09/16 11:56:07;;;;;;;4.47;3.40;;;18.30;99.90;;;;;;5035596;28;20482;-58
2022/09/16 11:58:37;;;;;;;9.73;3.20;;;18.50;99.90;;;;;;5037154;28;20030;-58
2022/09/16 12:01:34;;;;;;;5.55;3.15;;;18.80;99.90;;;;;;5036679;28;20036;-58
2022/09/16 12:04:14;;;;;;;5.75;2.60;;;19.00;99.90;;;;;;5036745;28;20049;-58
2022/09/16 12:06:59;;;;;;;7.47;3.47;;;18.90;99.90;;;;;;5036607;28;20028;-57
2022/09/16 12:09:44;;;;;;;3.80;2.80;;;19.00;99.90;;;;;;5037419;28;20025;-58
2022/09/16 12:12:19;;;;;;;5.28;2.95;;;18.90;99.90;;;;;;5037071;28;20076;-57
2022/09/16 12:14:53;;;;;;;7.22;2.72;;;19.00;99.90;;;;;;5036466;28;20028;-57
2022/09/16 12:17:26;;;;;;;4.63;2.80;;;19.00;99.90;;;;;;5036595;28;20025;-58
2022/09/16 12:20:15;;;;;;;2.90;2.47;;;19.00;99.90;;;;;;5036387;28;20377;-58
2022/09/16 12:23:05;;;;;;;4.45;2.60;;;19.20;99.90;;;;;;5036240;28;20382;-58
2022/09/16 12:26:12;;;;;;;3.08;2.03;;;19.90;99.90;;;;;;5035745;28;20030;-57
2022/09/16 12:28:44;;;;;;;3.92;2.45;;;20.30;99.90;;;;;;5025528;28;20056;-58
2022/09/16 12:31:14;;;;;;;3.78;2.88;;;20.20;99.90;;;;;;5036716;28;20057;-57
2022/09/16 12:34:03;;;;;;;4.28;2.70;;;20.20;99.90;;;;;;5063789;28;20103;-58
2022/09/16 12:36:32;;;;;;;2.90;2.55;;;20.10;99.90;;;;;;5076011;28;20028;-57
2022/09/16 12:38:59;;;;;;;4.25;2.35;;;20.10;99.90;;;;;;5076272;28;20112;-57
2022/09/16 12:41:30;;;;;;;7.72;2.80;;;19.90;99.90;;;;;;5074772;28;20024;-58
2022/09/16 12:44:13;;;;;;;3.67;2.88;;;19.80;99.90;;;;;;5076252;28;20522;-77
2022/09/16 12:47:17;;;;;;;3.45;2.72;;;19.70;99.90;;;;;;5074982;28;20051;-79
2022/09/16 12:50:41;;;;;;;3.00;2.65;;;19.60;99.90;;;;;;5076498;28;20468;-78
2022/09/16 12:53:28;;;;;;;7.05;2.80;;;19.40;99.90;;;;;;5052213;28;20468;-79
2022/09/16 12:56:18;;;;;;;5.22;3.38;;;19.00;99.90;;;;;;5076460;28;20028;-78
2022/09/16 12:59:02;;;;;;;6.30;2.50;;;18.90;99.90;;;;;;5074802;28;20024;-79
2022/09/16 13:01:34;;;;;;;3.03;2.45;;;18.70;99.90;;;;;;5074134;28;20025;-78
2022/09/16 13:04:20;;;;;;;4.53;2.85;;;18.70;99.90;;;;;;5064307;28;20139;-77
2022/09/16 13:06:50;;;;;;;4.47;2.63;;;18.90;99.90;;;;;;5054705;28;20114;-79
2022/09/16 13:09:22;;;;;;;3.97;2.83;;;18.90;99.90;;;;;;5054596;28;20420;-78
2022/09/16 13:12:04;;;;;;;5.82;2.92;;;18.90;99.90;;;;;;5055704;28;20111;-80
2022/09/16 13:14:46;;;;;;;3.33;2.90;;;18.90;99.90;;;;;;5055731;28;20032;-81
2022/09/16 13:17:12;;;;;;;4.43;2.92;;;18.80;99.90;;;;;;5055897;28;20082;-75